createdAt,value
2018-05-11T00:12:03.252Z,19.20
2018-05-11T00:14:30.587Z,21.20
2018-05-11T00:16:57.935Z,21.97
2018-05-11T00:19:25.287Z,18.33
2018-05-11T00:21:52.567Z,18.83
2018-05-11T00:24:19.831Z,21.40
2018-05-11T00:26:47.144Z,21.07
2018-05-11T00:29:14.412Z,23.67
2018-05-11T00:31:41.686Z,21.73
2018-05-11T00:34:08.954Z,25.57
2018-05-11T00:36:36.236Z,22.20
2018-05-11T00:39:03.502Z,19.13
2018-05-11T00:41:30.788Z,21.10
2018-05-11T00:43:58.056Z,21.17
2018-05-11T00:46:25.341Z,24.50
2018-05-11T00:48:52.602Z,21.40
2018-05-11T00:51:19.879Z,20.00
2018-05-11T00:53:47.147Z,18.30
2018-05-11T00:56:14.427Z,19.67
2018-05-11T00:58:41.683Z,20.10
2018-05-11T01:01:08.967Z,16.37
2018-05-11T01:03:36.232Z,17.00
2018-05-11T01:06:03.512Z,24.17
2018-05-11T01:08:30.867Z,19.50
2018-05-11T01:10:58.149Z,18.60
2018-05-11T01:13:25.418Z,17.23
2018-05-11T01:15:52.695Z,18.20
2018-05-11T01:18:19.959Z,17.73
2018-05-11T01:20:47.241Z,17.47
2018-05-11T01:23:14.499Z,19.13
2018-05-11T01:25:41.776Z,17.77
2018-05-11T01:28:09.045Z,18.80
2018-05-11T01:30:36.318Z,17.53
2018-05-11T01:33:03.589Z,16.40
2018-05-11T01:35:30.957Z,16.27
2018-05-11T01:37:58.216Z,14.00
2018-05-11T01:40:25.474Z,14.03
2018-05-11T01:42:52.759Z,15.80
2018-05-11T01:45:20.066Z,18.93
2018-05-11T01:47:47.304Z,19.53
2018-05-11T01:50:14.571Z,20.60
2018-05-11T01:52:41.854Z,17.43
2018-05-11T01:55:09.117Z,18.10
2018-05-11T01:57:36.448Z,18.90
2018-05-11T02:00:03.802Z,16.27
2018-05-11T02:02:31.075Z,17.33
2018-05-11T02:04:58.337Z,19.70
2018-05-11T02:07:25.618Z,17.60
2018-05-11T02:09:52.885Z,17.93
2018-05-11T02:12:20.161Z,18.50
2018-05-11T02:14:47.425Z,17.37
2018-05-11T02:17:14.709Z,19.80
2018-05-11T02:19:41.974Z,18.20
2018-05-11T02:22:09.250Z,20.20
2018-05-11T02:24:36.536Z,20.13
2018-05-11T02:27:03.891Z,19.67
2018-05-11T02:29:31.146Z,16.47
2018-05-11T02:31:58.499Z,15.90
2018-05-11T02:34:25.768Z,18.30
2018-05-11T02:36:53.111Z,17.53
2018-05-11T02:39:20.382Z,17.37
2018-05-11T02:41:47.659Z,17.77
2018-05-11T02:44:14.919Z,22.97
2018-05-11T02:46:42.200Z,19.50
2018-05-11T02:49:09.459Z,21.23
2018-05-11T02:51:36.744Z,23.67
2018-05-11T02:54:04.083Z,16.87
2018-05-11T02:56:31.370Z,17.33
2018-05-11T02:58:58.631Z,19.80
2018-05-11T03:01:25.918Z,16.70
2018-05-11T03:03:53.179Z,17.03
2018-05-11T03:06:20.503Z,21.07
2018-05-11T03:08:47.767Z,25.77
2018-05-11T03:11:15.066Z,22.07
2018-05-11T03:13:42.327Z,19.90
2018-05-11T03:16:09.606Z,18.67
2018-05-11T03:18:37.045Z,17.73
2018-05-11T03:21:04.258Z,22.50
2018-05-11T03:23:31.540Z,19.00
2018-05-11T03:25:58.798Z,21.23
2018-05-11T03:28:26.082Z,22.60
2018-05-11T03:30:53.343Z,18.80
2018-05-11T03:33:20.632Z,17.90
2018-05-11T03:35:47.892Z,20.00
2018-05-11T03:38:15.170Z,17.30
2018-05-11T03:40:42.436Z,18.67
2018-05-11T03:43:09.720Z,24.70
2018-05-11T03:45:36.979Z,17.83
2018-05-11T03:48:04.258Z,17.13
2018-05-11T03:50:31.518Z,18.83
2018-05-11T03:52:58.799Z,16.97
2018-05-11T03:55:26.061Z,15.77
2018-05-11T03:57:53.335Z,17.33
2018-05-11T04:00:20.644Z,22.37
2018-05-11T04:02:53.822Z,17.90
2018-05-11T04:05:26.943Z,18.97
2018-05-11T04:08:00.118Z,19.90
2018-05-11T04:10:27.471Z,23.03
2018-05-11T04:12:54.751Z,18.63
2018-05-11T04:15:22.023Z,19.30
2018-05-11T04:17:49.300Z,16.50
2018-05-11T04:20:16.588Z,18.13
2018-05-11T04:22:43.863Z,18.47
2018-05-11T04:25:11.199Z,16.77
2018-05-11T04:27:38.488Z,18.27
2018-05-11T04:30:05.861Z,16.73
2018-05-11T04:32:33.089Z,22.83
2018-05-11T04:35:00.359Z,20.03
2018-05-11T04:37:27.635Z,18.20
2018-05-11T04:39:54.905Z,20.10
2018-05-11T04:42:22.268Z,16.53
2018-05-11T04:44:49.530Z,16.70
2018-05-11T04:47:16.808Z,15.47
2018-05-11T04:49:44.072Z,15.67
2018-05-11T04:52:11.348Z,17.40
2018-05-11T04:54:38.643Z,17.03
2018-05-11T04:57:05.925Z,18.50
2018-05-11T04:59:33.188Z,19.70
2018-05-11T05:02:00.447Z,20.10
2018-05-11T05:04:27.761Z,22.00
2018-05-11T05:06:55.021Z,16.47
2018-05-11T05:09:22.305Z,16.27
2018-05-11T05:11:49.567Z,14.53
2018-05-11T05:14:16.847Z,17.30
2018-05-11T05:16:44.123Z,15.10
2018-05-11T05:19:11.479Z,18.37
2018-05-11T05:21:38.667Z,17.20
2018-05-11T05:24:05.991Z,19.33
2018-05-11T05:26:33.247Z,20.00
2018-05-11T05:29:00.531Z,16.50
2018-05-11T05:31:27.791Z,19.93
2018-05-11T05:33:55.073Z,17.77
2018-05-11T05:36:22.342Z,26.23
2018-05-11T05:38:49.615Z,21.90
2018-05-11T05:41:16.871Z,20.40
2018-05-11T05:43:44.159Z,20.17
2018-05-11T05:46:11.423Z,19.27
2018-05-11T05:48:38.703Z,23.93
2018-05-11T05:51:05.967Z,20.67
2018-05-11T05:53:33.243Z,20.20
2018-05-11T05:56:00.511Z,22.27
2018-05-11T05:58:27.811Z,19.40
2018-05-11T06:00:55.038Z,22.20
2018-05-11T06:03:22.350Z,22.73
2018-05-11T06:05:49.616Z,19.90
2018-05-11T06:08:16.961Z,20.47
2018-05-11T06:10:44.397Z,20.87
2018-05-11T06:13:11.614Z,18.90
2018-05-11T06:15:38.873Z,20.90
2018-05-11T06:18:06.149Z,19.17
2018-05-11T06:20:33.418Z,19.43
2018-05-11T06:23:00.783Z,17.40
2018-05-11T06:25:28.076Z,14.70
2018-05-11T06:27:55.433Z,13.90
2018-05-11T06:30:22.751Z,14.80
2018-05-11T06:32:50.110Z,14.00
2018-05-11T06:35:17.376Z,13.70
2018-05-11T06:37:44.654Z,14.07
2018-05-11T06:40:11.919Z,12.20
2018-05-11T06:42:39.206Z,12.70
2018-05-11T06:45:06.467Z,12.53
2018-05-11T06:47:33.731Z,11.27
2018-05-11T06:50:01.011Z,12.30
2018-05-11T06:52:28.271Z,11.50
2018-05-11T06:54:55.550Z,11.13
2018-05-11T06:57:22.810Z,12.60
2018-05-11T06:59:50.091Z,11.10
2018-05-11T07:02:17.374Z,11.70
2018-05-11T07:04:44.638Z,10.30
2018-05-11T07:07:11.963Z,13.00
2018-05-11T07:09:39.244Z,10.43
2018-05-11T07:12:06.516Z,11.33
2018-05-11T07:14:33.790Z,9.73
2018-05-11T07:17:01.047Z,9.27
2018-05-11T07:19:28.340Z,8.30
2018-05-11T07:21:55.580Z,8.97
2018-05-11T07:24:22.862Z,8.80
2018-05-11T07:26:50.124Z,8.80
2018-05-11T07:29:17.399Z,8.10
2018-05-11T07:31:44.654Z,8.13
2018-05-11T07:34:11.933Z,7.10
2018-05-11T07:36:39.195Z,8.23
2018-05-11T07:39:06.470Z,8.10
2018-05-11T07:41:33.719Z,7.23
2018-05-11T07:44:00.994Z,8.63
2018-05-11T07:46:28.250Z,8.40
2018-05-11T07:48:55.567Z,7.60
2018-05-11T07:51:22.828Z,7.10
2018-05-11T07:53:50.088Z,7.33
2018-05-11T07:56:17.431Z,6.67
2018-05-11T07:58:44.707Z,4.73
2018-05-11T08:01:11.963Z,5.13
2018-05-11T08:03:39.298Z,4.47
2018-05-11T08:06:06.547Z,4.50
2018-05-11T08:08:33.823Z,5.27
2018-05-11T08:11:01.155Z,5.63
2018-05-11T08:13:28.425Z,6.57
2018-05-11T08:15:55.680Z,6.40
2018-05-11T08:18:22.980Z,6.23
2018-05-11T08:20:50.210Z,7.30
2018-05-11T08:23:17.478Z,5.77
2018-05-11T08:25:44.739Z,6.83
2018-05-11T08:28:12.019Z,6.13
2018-05-11T08:30:39.283Z,6.67
2018-05-11T08:33:06.539Z,6.40
2018-05-11T08:35:33.806Z,6.57
2018-05-11T08:38:01.054Z,5.20
2018-05-11T08:40:28.318Z,5.43
2018-05-11T08:42:55.576Z,5.60
2018-05-11T08:45:22.911Z,5.90
2018-05-11T08:47:50.167Z,5.10
2018-05-11T08:50:17.438Z,6.30
2018-05-11T08:52:44.699Z,5.80
2018-05-11T08:55:12.030Z,5.97
2018-05-11T08:57:39.275Z,6.37
2018-05-11T09:00:06.547Z,6.27
2018-05-11T09:02:33.793Z,6.43
2018-05-11T09:05:01.138Z,6.50
2018-05-11T09:07:28.396Z,6.27
2018-05-11T09:09:55.759Z,6.00
2018-05-11T09:12:23.010Z,7.00
2018-05-11T09:14:50.275Z,5.87
2018-05-11T09:17:17.526Z,6.07
2018-05-11T09:19:44.800Z,6.40
2018-05-11T09:22:12.051Z,6.33
2018-05-11T09:24:39.327Z,6.20
2018-05-11T09:27:06.686Z,6.73
2018-05-11T09:29:33.918Z,7.53
2018-05-11T09:32:01.176Z,6.63
2018-05-11T09:34:28.443Z,6.57
2018-05-11T09:36:55.699Z,6.57
2018-05-11T09:39:23.057Z,6.27
2018-05-11T09:41:50.224Z,6.90
2018-05-11T09:44:17.492Z,7.07
2018-05-11T09:46:44.741Z,6.70
2018-05-11T09:49:12.036Z,6.80
2018-05-11T09:51:39.375Z,6.80
2018-05-11T09:54:06.659Z,7.30
2018-05-11T09:56:33.912Z,6.83
2018-05-11T09:59:01.191Z,6.70
2018-05-11T10:01:28.457Z,6.40
2018-05-11T10:03:55.725Z,5.93
2018-05-11T10:06:22.971Z,6.57
2018-05-11T10:08:50.348Z,5.67
2018-05-11T10:11:17.603Z,6.10
2018-05-11T10:13:44.855Z,5.27
2018-05-11T10:16:12.128Z,6.00
2018-05-11T10:18:39.389Z,5.60
2018-05-11T10:21:06.725Z,5.13
2018-05-11T10:23:33.984Z,4.80
2018-05-11T10:26:01.247Z,5.63
2018-05-11T10:28:28.505Z,5.80
2018-05-11T10:30:55.784Z,5.80
2018-05-11T10:33:23.039Z,6.00
2018-05-11T10:35:50.335Z,6.10
2018-05-11T10:38:17.581Z,5.50
2018-05-11T10:40:44.944Z,5.80
2018-05-11T10:43:13.264Z,5.27
2018-05-11T10:45:41.073Z,5.80
2018-05-11T10:48:08.367Z,5.03
2018-05-11T10:50:35.638Z,5.60
2018-05-11T10:53:04.230Z,5.63
2018-05-11T10:55:32.312Z,5.10
2018-05-11T10:57:59.599Z,5.07
2018-05-11T11:00:26.863Z,5.50
2018-05-11T11:02:54.241Z,5.00
2018-05-11T11:05:21.496Z,5.30
2018-05-11T11:07:48.742Z,5.53
2018-05-11T11:10:16.015Z,6.13
2018-05-11T11:12:43.263Z,6.23
2018-05-11T11:15:10.557Z,5.50
2018-05-11T11:17:37.807Z,5.60
2018-05-11T11:20:05.162Z,5.87
2018-05-11T11:22:32.331Z,5.90
2018-05-11T11:24:59.594Z,5.73
2018-05-11T11:27:26.843Z,5.60
2018-05-11T11:29:54.113Z,6.30
2018-05-11T11:32:21.484Z,5.00
2018-05-11T11:34:48.819Z,5.33
2018-05-11T11:37:16.067Z,5.30
2018-05-11T11:39:43.334Z,4.80
2018-05-11T11:42:10.728Z,5.07
2018-05-11T11:44:37.867Z,5.30
2018-05-11T11:47:05.131Z,5.43
2018-05-11T11:49:32.368Z,5.47
2018-05-11T11:51:59.647Z,5.97
2018-05-11T11:54:26.943Z,5.53
2018-05-11T11:56:54.300Z,5.67
2018-05-11T11:59:21.551Z,4.60
2018-05-11T12:01:48.829Z,5.30
2018-05-11T12:04:16.224Z,5.57
2018-05-11T12:06:43.493Z,5.50
2018-05-11T12:09:10.741Z,5.60
2018-05-11T12:11:38.018Z,5.70
2018-05-11T12:14:05.275Z,5.70
2018-05-11T12:16:32.630Z,5.80
2018-05-11T12:18:59.991Z,4.60
2018-05-11T12:21:27.253Z,5.50
2018-05-11T12:23:54.510Z,5.07
2018-05-11T12:26:21.831Z,4.63
2018-05-11T12:28:49.023Z,5.10
2018-05-11T12:31:16.295Z,4.60
2018-05-11T12:33:43.543Z,5.50
2018-05-11T12:36:10.811Z,6.00
2018-05-11T12:38:38.909Z,5.77
2018-05-11T12:41:06.196Z,6.30
2018-05-11T12:43:33.425Z,6.77
2018-05-11T12:46:00.700Z,7.13
2018-05-11T12:48:27.959Z,7.63
2018-05-11T12:50:55.231Z,7.00
2018-05-11T12:53:22.488Z,6.90
2018-05-11T12:55:49.848Z,7.30
2018-05-11T12:58:17.077Z,6.93
2018-05-11T13:00:44.347Z,6.77
2018-05-11T13:03:11.600Z,7.03
2018-05-11T13:05:38.870Z,7.90
2018-05-11T13:08:06.198Z,7.60
2018-05-11T13:10:33.478Z,6.40
2018-05-11T13:13:00.814Z,6.67
2018-05-11T13:15:28.007Z,7.47
2018-05-11T13:17:55.260Z,7.10
2018-05-11T13:20:22.570Z,7.40
2018-05-11T13:22:49.804Z,7.10
2018-05-11T13:25:17.055Z,6.50
2018-05-11T13:27:44.331Z,8.13
2018-05-11T13:30:11.587Z,7.33
2018-05-11T13:32:38.858Z,7.43
2018-05-11T13:35:06.123Z,8.07
2018-05-11T13:37:33.397Z,7.53
2018-05-11T13:40:00.650Z,7.63
2018-05-11T13:42:27.923Z,7.77
2018-05-11T13:44:55.683Z,7.80
2018-05-11T13:47:22.951Z,8.03
2018-05-11T13:49:50.209Z,7.10
2018-05-11T13:52:17.475Z,8.20
2018-05-11T13:54:44.730Z,8.33
2018-05-11T13:57:12.071Z,7.47
2018-05-11T13:59:39.322Z,6.90
2018-05-11T14:02:06.679Z,8.27
2018-05-11T14:04:34.017Z,8.70
2018-05-11T14:07:01.208Z,8.50
2018-05-11T14:09:28.451Z,7.37
2018-05-11T14:11:55.725Z,8.00
2018-05-11T14:14:22.983Z,7.63
2018-05-11T14:16:50.255Z,6.53
2018-05-11T14:19:17.510Z,7.40
2018-05-11T14:21:44.798Z,7.50
2018-05-11T14:24:12.051Z,8.13
2018-05-11T14:26:39.301Z,7.67
2018-05-11T14:29:06.581Z,8.07
2018-05-11T14:31:33.835Z,7.53
2018-05-11T14:34:01.180Z,8.20
2018-05-11T14:36:28.439Z,9.67
2018-05-11T14:38:55.711Z,8.27
2018-05-11T14:41:22.962Z,9.23
2018-05-11T14:43:50.236Z,9.70
2018-05-11T14:46:17.556Z,9.17
2018-05-11T14:48:44.821Z,9.00
2018-05-11T14:51:12.083Z,8.63
2018-05-11T14:53:39.350Z,8.13
2018-05-11T14:56:06.612Z,9.97
2018-05-11T14:58:33.885Z,9.00
2018-05-11T15:01:01.135Z,9.37
2018-05-11T15:03:28.415Z,9.23
2018-05-11T15:05:55.690Z,9.37
2018-05-11T15:08:22.955Z,9.53
2018-05-11T15:10:50.219Z,10.07
2018-05-11T15:13:17.499Z,10.00
2018-05-11T15:15:44.765Z,10.17
2018-05-11T15:18:12.048Z,9.93
2018-05-11T15:20:39.411Z,9.50
2018-05-11T15:23:06.688Z,10.30
2018-05-11T15:25:33.952Z,8.90
2018-05-11T15:28:01.273Z,8.73
2018-05-11T15:30:28.619Z,8.97
2018-05-11T15:32:55.898Z,10.20
2018-05-11T15:35:23.171Z,9.03
2018-05-11T15:37:50.483Z,8.50
2018-05-11T15:40:17.767Z,8.70
2018-05-11T15:42:45.031Z,10.07
2018-05-11T15:45:12.291Z,10.13
2018-05-11T15:47:39.574Z,10.50
2018-05-11T15:50:06.843Z,10.07
2018-05-11T15:52:34.099Z,10.50
2018-05-11T15:55:01.460Z,10.40
2018-05-11T15:57:28.639Z,10.93
2018-05-11T15:59:55.922Z,10.30
2018-05-11T16:02:23.180Z,9.17
2018-05-11T16:04:50.450Z,9.03
2018-05-11T16:07:17.735Z,8.10
2018-05-11T16:09:45.014Z,9.10
2018-05-11T16:12:12.264Z,7.97
2018-05-11T16:14:39.543Z,10.40
2018-05-11T16:17:06.852Z,8.63
2018-05-11T16:19:34.122Z,8.80
2018-05-11T16:22:01.391Z,8.70
2018-05-11T16:24:28.655Z,8.00
2018-05-11T16:26:55.922Z,8.60
2018-05-11T16:29:23.199Z,8.70
2018-05-11T16:31:50.448Z,9.27
2018-05-11T16:34:17.721Z,7.90
2018-05-11T16:36:44.982Z,8.57
2018-05-11T16:39:12.251Z,8.83
2018-05-11T16:41:39.510Z,9.40
2018-05-11T16:44:06.846Z,10.30
2018-05-11T16:46:34.203Z,9.97
2018-05-11T16:49:01.475Z,7.87
2018-05-11T16:51:28.743Z,9.90
2018-05-11T16:53:56.023Z,8.63
2018-05-11T16:56:23.311Z,8.57
2018-05-11T16:58:50.667Z,8.50
2018-05-11T17:01:17.932Z,9.10
2018-05-11T17:03:45.204Z,8.10
2018-05-11T17:06:12.457Z,9.20
2018-05-11T17:08:39.738Z,7.80
2018-05-11T17:11:07.040Z,7.93
2018-05-11T17:13:34.394Z,7.60
2018-05-11T17:16:01.650Z,7.00
2018-05-11T17:18:28.918Z,7.60
2018-05-11T17:20:56.171Z,7.27
2018-05-11T17:23:23.448Z,7.50
2018-05-11T17:25:50.694Z,8.37
2018-05-11T17:28:17.975Z,7.40
2018-05-11T17:30:45.230Z,7.30
2018-05-11T17:33:12.487Z,8.37
2018-05-11T17:35:39.771Z,8.83
2018-05-11T17:38:07.023Z,8.53
2018-05-11T17:40:34.294Z,8.03
2018-05-11T17:43:01.582Z,7.93
2018-05-11T17:45:28.863Z,8.67
2018-05-11T17:47:56.112Z,7.43
2018-05-11T17:50:23.389Z,7.50
2018-05-11T17:52:50.634Z,8.20
2018-05-11T17:55:17.905Z,8.10
2018-05-11T17:57:45.165Z,8.60
2018-05-11T18:00:12.442Z,7.20
2018-05-11T18:02:39.773Z,8.90
2018-05-11T18:05:07.051Z,7.93
2018-05-11T18:07:34.379Z,8.47
2018-05-11T18:10:01.698Z,8.73
2018-05-11T18:12:29.003Z,8.20
2018-05-11T18:14:56.199Z,9.17
2018-05-11T18:17:23.458Z,8.83
2018-05-11T18:19:50.744Z,9.20
2018-05-11T18:22:18.020Z,8.67
2018-05-11T18:24:45.270Z,9.00
2018-05-11T18:27:12.543Z,9.37
2018-05-11T18:29:39.798Z,10.20
2018-05-11T18:32:07.075Z,8.63
2018-05-11T18:34:34.334Z,8.37
2018-05-11T18:37:01.615Z,9.30
2018-05-11T18:39:28.878Z,9.00
2018-05-11T18:41:56.142Z,9.23
2018-05-11T18:44:23.398Z,9.53
2018-05-11T18:46:50.676Z,9.17
2018-05-11T18:49:17.937Z,9.30
2018-05-11T18:51:45.215Z,10.07
2018-05-11T18:54:12.682Z,10.43
2018-05-11T18:56:39.763Z,10.03
2018-05-11T18:59:07.024Z,10.20
2018-05-11T19:01:34.393Z,9.97
2018-05-11T19:04:01.577Z,8.87
2018-05-11T19:06:28.828Z,10.07
2018-05-11T19:08:56.183Z,9.17
2018-05-11T19:11:23.363Z,9.07
2018-05-11T19:13:50.633Z,8.87
2018-05-11T19:16:17.883Z,8.00
2018-05-11T19:18:45.157Z,8.70
2018-05-11T19:21:12.423Z,10.63
2018-05-11T19:23:39.695Z,9.70
2018-05-11T19:26:07.030Z,8.50
2018-05-11T19:28:34.250Z,8.83
2018-05-11T19:31:01.504Z,9.50
2018-05-11T19:33:28.777Z,9.00
2018-05-11T19:35:56.035Z,9.07
2018-05-11T19:38:23.371Z,8.03
2018-05-11T19:40:50.630Z,8.60
2018-05-11T19:43:17.905Z,8.17
2018-05-11T19:45:45.155Z,8.07
2018-05-11T19:48:12.479Z,8.47
2018-05-11T19:50:40.592Z,8.70
2018-05-11T19:53:08.514Z,9.20
2018-05-11T19:55:36.841Z,9.57
2018-05-11T19:58:05.016Z,8.70
2018-05-11T20:00:32.558Z,9.80
2018-05-11T20:03:00.038Z,9.70
2018-05-11T20:05:27.801Z,9.17
2018-05-11T20:07:55.973Z,9.77
2018-05-11T20:10:24.353Z,9.17
2018-05-11T20:12:53.017Z,7.73
2018-05-11T20:15:21.114Z,8.67
2018-05-11T20:17:49.065Z,6.93
2018-05-11T20:20:17.217Z,8.07
2018-05-11T20:22:45.946Z,8.07
2018-05-11T20:25:14.429Z,8.30
2018-05-11T20:27:42.696Z,8.37
2018-05-11T20:30:10.538Z,9.17
2018-05-11T20:32:38.876Z,9.37
2018-05-11T20:35:06.463Z,8.30
2018-05-11T20:37:34.504Z,8.83
2018-05-11T20:40:02.876Z,10.07
2018-05-11T20:42:30.532Z,9.47
2018-05-11T20:44:59.288Z,7.67
2018-05-11T20:47:26.981Z,10.67
2018-05-11T20:49:55.344Z,7.80
2018-05-11T20:52:23.544Z,9.93
2018-05-11T20:54:51.299Z,8.87
2018-05-11T20:57:19.831Z,8.87
2018-05-11T20:59:48.469Z,8.80
2018-05-11T21:02:16.716Z,9.70
2018-05-11T21:04:44.669Z,9.10
2018-05-11T21:07:13.207Z,7.97
2018-05-11T21:09:41.373Z,7.90
2018-05-11T21:12:09.755Z,7.97
2018-05-11T21:14:38.482Z,7.57
2018-05-11T21:17:06.104Z,8.97
2018-05-11T21:19:34.669Z,9.50
2018-05-11T21:22:03.070Z,8.57
2018-05-11T21:24:31.867Z,8.57
2018-05-11T21:26:59.410Z,9.13
2018-05-11T21:29:26.687Z,8.90
2018-05-11T21:31:53.949Z,9.10
2018-05-11T21:34:21.259Z,10.03
2018-05-11T21:36:48.523Z,8.30
2018-05-11T21:39:15.786Z,8.70
2018-05-11T21:41:43.109Z,8.83
2018-05-11T21:44:10.367Z,10.03
2018-05-11T21:46:37.635Z,8.23
2018-05-11T21:49:04.888Z,8.33
2018-05-11T21:51:32.163Z,9.20
2018-05-11T21:53:59.419Z,9.73
2018-05-11T21:56:26.686Z,8.37
2018-05-11T21:58:53.943Z,8.20
2018-05-11T22:01:21.211Z,9.00
2018-05-11T22:03:48.464Z,8.67
2018-05-11T22:06:15.744Z,8.47
2018-05-11T22:08:43.003Z,8.37
2018-05-11T22:11:10.267Z,8.67
2018-05-11T22:13:37.665Z,9.40
2018-05-11T22:16:04.867Z,8.57
2018-05-11T22:18:32.132Z,8.27
2018-05-11T22:20:59.472Z,10.30
2018-05-11T22:23:27.671Z,8.40
2018-05-11T22:25:54.998Z,8.87
2018-05-11T22:28:22.254Z,7.80
2018-05-11T22:30:49.503Z,8.97
2018-05-11T22:33:17.044Z,8.90
2018-05-11T22:35:44.295Z,6.63
2018-05-11T22:38:11.538Z,8.63
2018-05-11T22:40:38.833Z,9.77
2018-05-11T22:43:06.104Z,9.10
2018-05-11T22:45:33.382Z,8.13
2018-05-11T22:48:00.695Z,9.07
2018-05-11T22:50:27.971Z,8.93
2018-05-11T22:52:55.216Z,8.10
2018-05-11T22:55:22.495Z,9.03
2018-05-11T22:57:49.807Z,10.03
2018-05-11T23:00:23.304Z,9.90
2018-05-11T23:02:51.322Z,10.57
2018-05-11T23:05:18.629Z,10.20
2018-05-11T23:07:45.991Z,11.90
2018-05-11T23:10:13.343Z,11.53
2018-05-11T23:12:40.702Z,11.37
2018-05-11T23:15:08.053Z,9.07
2018-05-11T23:17:35.310Z,10.27
2018-05-11T23:20:02.601Z,10.17
2018-05-11T23:22:29.851Z,11.27
2018-05-11T23:24:57.146Z,11.50
2018-05-11T23:27:24.433Z,9.27
2018-05-11T23:29:51.708Z,10.80
2018-05-11T23:32:18.986Z,11.00
2018-05-11T23:34:46.252Z,9.93
2018-05-11T23:37:13.535Z,10.27
2018-05-11T23:39:40.800Z,10.30
2018-05-11T23:42:08.095Z,11.73
2018-05-11T23:44:35.359Z,9.80
2018-05-11T23:47:02.620Z,10.57
2018-05-11T23:49:29.908Z,10.00
2018-05-11T23:51:57.172Z,10.27
2018-05-11T23:54:24.464Z,11.77
2018-05-11T23:56:51.728Z,10.43
2018-05-11T23:59:19.025Z,10.80
